Time;durP1;ratioP1;P1;durP2;ratioP2;P2;SDS_P1;SDS_P2;PMS_P1;PMS_P2;Temp;Humidity;BMP_temperature;BMP_pressure;BME280_temperature;BME280_humidity;BME280_pressure;Samples;Min_cycle;Max_cycle;Signal;HPM_P1;HPM_P2
2022/07/05 00:01:04;;;;;;;10.32;9.52;;;17.30;63.20;;;;;;5024106;28;20049;-82
2022/07/05 00:03:30;;;;;;;10.80;10.00;;;17.30;63.30;;;;;;5017179;28;20396;-83
2022/07/05 00:05:56;;;;;;;9.68;8.90;;;17.30;63.30;;;;;;5028925;28;20029;-82
2022/07/05 00:08:22;;;;;;;10.00;9.05;;;17.10;64.10;;;;;;5030081;28;20049;-83
2022/07/05 00:10:48;;;;;;;10.32;9.30;;;17.10;64.10;;;;;;5018254;28;20515;-83
2022/07/05 00:13:15;;;;;;;10.40;9.50;;;17.10;64.10;;;;;;5039610;28;20388;-83
2022/07/05 00:15:41;;;;;;;10.15;9.40;;;17.10;64.10;;;;;;5029743;28;20034;-83
2022/07/05 00:18:07;;;;;;;10.43;9.35;;;17.10;64.20;;;;;;5028696;28;20045;-82
2022/07/05 00:20:33;;;;;;;10.05;9.38;;;17.20;64.00;;;;;;5045893;28;20025;-82
2022/07/05 00:22:59;;;;;;;10.15;9.55;;;17.20;63.90;;;;;;5028624;28;20052;-82
2022/07/05 00:25:25;;;;;;;11.30;10.50;;;17.20;64.00;;;;;;5037842;28;20223;-82
2022/07/05 00:27:53;;;;;;;11.40;10.63;;;17.00;64.10;;;;;;5035758;28;20472;-82
2022/07/05 00:30:19;;;;;;;12.95;11.98;;;16.90;64.80;;;;;;5027749;28;20037;-83
2022/07/05 00:32:45;;;;;;;14.05;13.15;;;16.90;64.70;;;;;;5028523;28;20057;-82
2022/07/05 00:35:11;;;;;;;14.02;13.15;;;16.90;64.60;;;;;;5028907;28;20046;-82
2022/07/05 00:37:37;;;;;;;14.23;13.20;;;17.00;64.30;;;;;;5029262;28;20034;-82
2022/07/05 00:40:05;;;;;;;13.70;12.63;;;17.10;64.40;;;;;;5044627;28;20052;-83
2022/07/05 00:42:31;;;;;;;12.98;12.10;;;17.10;63.60;;;;;;5027846;28;20053;-82
2022/07/05 00:44:57;;;;;;;13.07;12.35;;;17.00;64.30;;;;;;5011316;28;20033;-83
2022/07/05 00:47:23;;;;;;;12.90;11.93;;;17.10;63.80;;;;;;5011959;28;20037;-82
2022/07/05 00:49:49;;;;;;;11.45;10.75;;;17.00;64.10;;;;;;5034245;28;20033;-82
2022/07/05 00:52:15;;;;;;;12.00;11.30;;;17.00;64.20;;;;;;5022099;28;20851;-82
2022/07/05 00:54:41;;;;;;;12.25;11.50;;;17.00;64.10;;;;;;5043537;28;20036;-82
2022/07/05 00:57:08;;;;;;;12.02;11.02;;;16.80;64.60;;;;;;5029537;28;20086;-82
2022/07/05 00:59:34;;;;;;;11.43;10.43;;;16.70;65.00;;;;;;5028696;28;20026;-82
2022/07/05 01:02:00;;;;;;;11.90;11.00;;;16.70;65.30;;;;;;5017927;28;20046;-82
2022/07/05 01:04:26;;;;;;;10.73;9.93;;;16.60;65.60;;;;;;5024732;28;20484;-82
2022/07/05 01:06:52;;;;;;;10.65;10.05;;;16.60;65.80;;;;;;5044697;28;20033;-82
2022/07/05 01:09:19;;;;;;;10.18;9.38;;;16.60;65.70;;;;;;5029625;28;20088;-82
2022/07/05 01:11:49;;;;;;;9.80;9.00;;;16.50;65.80;;;;;;5028465;28;20041;-82
2022/07/05 01:14:17;;;;;;;9.43;8.88;;;16.50;66.10;;;;;;5014860;28;20030;-83
2022/07/05 01:16:43;;;;;;;9.88;9.02;;;16.60;65.70;;;;;;5027134;28;20041;-82
2022/07/05 01:19:10;;;;;;;10.05;9.35;;;16.60;65.70;;;;;;5044871;28;20044;-82
2022/07/05 01:21:44;;;;;;;10.68;9.80;;;16.50;66.10;;;;;;5047081;28;20056;-82
2022/07/05 01:24:11;;;;;;;10.52;9.60;;;16.50;66.10;;;;;;5031571;28;20032;-82
2022/07/05 01:26:38;;;;;;;11.27;10.35;;;16.50;66.20;;;;;;5012295;28;20053;-82
2022/07/05 01:29:04;;;;;;;12.32;11.63;;;16.40;66.30;;;;;;5032070;28;20041;-82
2022/07/05 01:31:30;;;;;;;11.70;10.82;;;16.30;66.60;;;;;;5030634;28;20053;-82
2022/07/05 01:33:56;;;;;;;12.38;11.57;;;16.20;67.00;;;;;;5032314;28;20044;-82
2022/07/05 01:36:22;;;;;;;14.40;13.60;;;16.20;67.00;;;;;;5031210;28;20029;-82
2022/07/05 01:38:49;;;;;;;13.50;12.50;;;16.20;67.10;;;;;;5031169;28;20033;-82
2022/07/05 01:41:15;;;;;;;10.32;9.73;;;16.10;67.50;;;;;;5031877;28;20037;-82
2022/07/05 01:43:41;;;;;;;10.00;9.30;;;16.00;67.80;;;;;;5023401;28;20053;-82
2022/07/05 01:46:08;;;;;;;9.30;8.70;;;16.00;68.10;;;;;;5019266;28;20041;-82
2022/07/05 01:48:35;;;;;;;9.90;9.00;;;16.00;68.20;;;;;;5021174;28;20033;-81
2022/07/05 01:51:05;;;;;;;10.13;9.38;;;16.00;68.00;;;;;;5015181;28;20028;-82
2022/07/05 01:53:32;;;;;;;9.68;8.88;;;16.10;67.80;;;;;;5028072;28;20471;-82
2022/07/05 01:55:59;;;;;;;9.18;8.48;;;16.00;68.10;;;;;;5021217;28;20030;-81
2022/07/05 01:58:25;;;;;;;9.18;8.48;;;15.90;68.60;;;;;;5043067;28;20034;-81
2022/07/05 02:00:53;;;;;;;8.75;8.10;;;15.90;68.50;;;;;;5030295;28;20045;-82
2022/07/05 02:03:20;;;;;;;8.95;8.18;;;16.00;68.30;;;;;;5031941;28;20041;-82
2022/07/05 02:05:46;;;;;;;8.40;7.90;;;16.10;67.80;;;;;;5030447;28;20026;-82
2022/07/05 02:08:13;;;;;;;8.23;7.60;;;16.00;68.10;;;;;;5018022;28;20060;-82
2022/07/05 02:10:39;;;;;;;8.38;7.78;;;15.90;68.20;;;;;;5028145;28;20029;-83
2022/07/05 02:13:05;;;;;;;8.23;7.63;;;15.90;68.30;;;;;;5031697;28;20037;-82
2022/07/05 02:15:33;;;;;;;8.60;7.95;;;16.00;68.00;;;;;;5046654;28;20041;-82
2022/07/05 02:17:59;;;;;;;8.77;8.05;;;16.10;67.80;;;;;;5014210;28;20034;-82
2022/07/05 02:20:26;;;;;;;9.52;8.40;;;16.10;67.80;;;;;;5031007;28;20033;-82
2022/07/05 02:22:52;;;;;;;9.50;8.73;;;16.20;67.40;;;;;;5036622;28;20042;-82
2022/07/05 02:25:18;;;;;;;10.23;9.02;;;16.20;67.40;;;;;;5041652;28;20048;-82
2022/07/05 02:27:44;;;;;;;9.25;8.50;;;16.20;67.10;;;;;;5028501;28;20058;-82
2022/07/05 02:30:11;;;;;;;8.43;7.88;;;16.10;67.30;;;;;;5016722;28;20025;-82
2022/07/05 02:32:37;;;;;;;8.90;8.30;;;16.10;67.60;;;;;;5029707;28;20033;-82
2022/07/05 02:35:04;;;;;;;9.00;8.30;;;16.10;67.60;;;;;;5030382;28;20033;-82
2022/07/05 02:37:30;;;;;;;8.73;8.10;;;16.10;67.50;;;;;;5029250;28;20488;-82
2022/07/05 02:39:56;;;;;;;8.60;8.00;;;16.10;67.50;;;;;;5046485;28;20038;-82
2022/07/05 02:42:22;;;;;;;7.85;7.35;;;16.00;68.60;;;;;;5029900;28;20479;-82
2022/07/05 02:44:48;;;;;;;8.38;7.80;;;16.00;68.10;;;;;;5046455;28;20029;-82
2022/07/05 02:47:14;;;;;;;8.10;7.60;;;15.90;68.30;;;;;;5033260;28;20034;-82
2022/07/05 02:49:40;;;;;;;8.80;8.00;;;15.80;68.60;;;;;;5028731;28;20409;-82
2022/07/05 02:52:06;;;;;;;8.50;7.80;;;15.80;68.90;;;;;;5025523;28;20045;-82
2022/07/05 02:54:33;;;;;;;8.07;7.43;;;15.60;69.20;;;;;;5018073;28;20037;-82
2022/07/05 02:56:59;;;;;;;8.00;7.47;;;15.70;68.90;;;;;;5029540;28;20033;-82
2022/07/05 02:59:26;;;;;;;8.70;8.00;;;15.90;68.70;;;;;;5030556;28;20022;-82
2022/07/05 03:01:52;;;;;;;8.70;7.97;;;15.80;68.90;;;;;;5019879;28;20061;-82
2022/07/05 03:04:18;;;;;;;9.07;8.18;;;15.70;69.20;;;;;;5018099;28;20034;-82
2022/07/05 03:06:44;;;;;;;8.90;8.30;;;15.70;69.30;;;;;;5024325;28;20033;-81
2022/07/05 03:09:10;;;;;;;8.60;7.97;;;15.80;69.10;;;;;;5029327;28;20400;-82
2022/07/05 03:11:36;;;;;;;7.93;7.43;;;15.70;69.00;;;;;;5031004;28;20034;-82
2022/07/05 03:14:02;;;;;;;8.30;7.80;;;15.70;69.20;;;;;;5012796;28;20052;-82
2022/07/05 03:16:29;;;;;;;8.80;8.00;;;15.80;69.20;;;;;;5004728;28;20038;-82
2022/07/05 03:18:55;;;;;;;8.20;7.70;;;15.60;69.50;;;;;;5026228;28;20033;-82
2022/07/05 03:21:21;;;;;;;8.32;7.63;;;15.60;69.90;;;;;;5031692;28;20049;-82
2022/07/05 03:23:47;;;;;;;8.93;8.23;;;15.60;69.60;;;;;;5031113;28;20048;-81
2022/07/05 03:26:13;;;;;;;8.65;8.15;;;15.60;69.90;;;;;;5034601;28;20029;-82
2022/07/05 03:28:40;;;;;;;10.07;9.23;;;15.40;70.30;;;;;;5034640;28;20068;-82
2022/07/05 03:31:06;;;;;;;9.18;8.55;;;15.50;70.20;;;;;;5028690;28;20480;-82
2022/07/05 03:33:32;;;;;;;9.52;8.75;;;15.50;70.20;;;;;;5030140;28;20044;-82
2022/07/05 03:35:58;;;;;;;11.10;10.23;;;15.50;70.00;;;;;;5045972;28;20022;-82
2022/07/05 03:38:24;;;;;;;10.60;9.88;;;15.60;70.00;;;;;;5046392;28;20045;-81
2022/07/05 03:40:50;;;;;;;10.23;9.60;;;15.50;69.70;;;;;;5018541;28;20408;-82
2022/07/05 03:43:16;;;;;;;10.15;9.55;;;15.60;70.20;;;;;;5017233;28;20080;-82
2022/07/05 03:45:42;;;;;;;9.68;8.98;;;15.50;70.10;;;;;;5034227;28;20045;-82
2022/07/05 03:48:08;;;;;;;10.63;9.63;;;15.50;70.20;;;;;;5030277;28;20037;-82
2022/07/05 03:50:34;;;;;;;10.27;9.57;;;15.50;70.30;;;;;;5013285;28;20038;-82
2022/07/05 03:53:00;;;;;;;10.52;9.73;;;15.50;70.20;;;;;;5017652;28;20021;-82
2022/07/05 03:55:26;;;;;;;10.50;9.70;;;15.60;70.00;;;;;;5025596;28;20037;-83
2022/07/05 03:57:53;;;;;;;9.50;8.63;;;15.60;69.70;;;;;;5028481;28;20510;-82
2022/07/05 04:00:19;;;;;;;10.30;9.15;;;15.70;69.40;;;;;;5044798;28;20041;-82
2022/07/05 04:02:45;;;;;;;9.73;8.93;;;15.70;69.50;;;;;;5028590;28;20423;-82
2022/07/05 04:05:11;;;;;;;9.63;8.88;;;15.70;69.10;;;;;;5018303;28;20033;-82
2022/07/05 04:07:50;;;;;;;9.90;9.20;;;15.60;69.40;;;;;;5028597;28;20480;-82
2022/07/05 04:10:17;;;;;;;9.65;9.05;;;15.70;69.50;;;;;;5030228;28;20369;-82
2022/07/05 04:12:43;;;;;;;9.68;8.80;;;15.80;68.90;;;;;;5030550;28;20037;-82
2022/07/05 04:15:09;;;;;;;9.57;8.88;;;15.60;69.50;;;;;;5029345;28;20407;-83
2022/07/05 04:17:45;;;;;;;10.32;9.68;;;15.70;69.80;;;;;;5029122;28;20041;-82
2022/07/05 04:20:11;;;;;;;10.52;9.73;;;15.60;69.50;;;;;;5045050;28;20041;-82
2022/07/05 04:22:37;;;;;;;9.23;8.57;;;15.60;69.60;;;;;;5036872;28;20077;-82
2022/07/05 04:25:19;;;;;;;9.68;8.90;;;15.70;69.10;;;;;;5022578;28;20038;-82
2022/07/05 04:27:46;;;;;;;9.73;9.02;;;15.60;69.40;;;;;;5042704;28;20045;-82
2022/07/05 04:30:13;;;;;;;9.95;9.35;;;15.70;69.20;;;;;;5027088;28;20052;-82
2022/07/05 04:32:39;;;;;;;11.00;10.05;;;15.70;69.40;;;;;;5044974;28;20026;-82
2022/07/05 04:35:05;;;;;;;9.70;8.95;;;15.70;69.20;;;;;;5027336;28;20052;-82
2022/07/05 04:37:31;;;;;;;10.75;9.80;;;15.70;69.10;;;;;;5028149;28;20033;-82
2022/07/05 04:39:57;;;;;;;10.50;9.70;;;15.70;69.40;;;;;;5028111;28;20423;-82
2022/07/05 04:42:23;;;;;;;12.68;11.60;;;15.50;70.10;;;;;;5029460;28;20042;-82
2022/07/05 04:44:49;;;;;;;12.10;10.98;;;15.30;70.90;;;;;;5028233;28;20507;-82
2022/07/05 04:47:16;;;;;;;11.43;10.27;;;15.30;70.90;;;;;;5028611;28;20030;-82
2022/07/05 04:49:42;;;;;;;11.63;10.45;;;15.40;70.70;;;;;;5028209;28;20042;-82
2022/07/05 04:52:08;;;;;;;10.43;9.82;;;15.50;70.10;;;;;;5029278;28;20037;-82
2022/07/05 04:54:35;;;;;;;10.68;9.63;;;15.60;69.90;;;;;;5044806;28;20034;-81
2022/07/05 04:57:01;;;;;;;10.88;10.10;;;15.40;70.70;;;;;;5048669;28;20360;-82
2022/07/05 04:59:27;;;;;;;11.18;10.18;;;15.40;71.00;;;;;;5018382;28;20041;-82
2022/07/05 05:01:53;;;;;;;11.23;10.23;;;15.40;71.00;;;;;;5021348;28;20523;-82
2022/07/05 05:04:19;;;;;;;9.98;8.95;;;15.40;71.10;;;;;;5010070;28;20057;-82
2022/07/05 05:06:45;;;;;;;9.73;9.02;;;15.20;71.90;;;;;;5048184;28;20577;-82
2022/07/05 05:09:11;;;;;;;10.80;8.55;;;15.20;72.20;;;;;;5031945;28;20045;-82
2022/07/05 05:11:37;;;;;;;9.85;8.85;;;15.30;72.10;;;;;;5033327;28;20531;-82
2022/07/05 05:14:03;;;;;;;10.35;9.55;;;15.50;71.40;;;;;;5033210;28;20038;-82
2022/07/05 05:16:29;;;;;;;10.52;9.75;;;15.60;70.60;;;;;;5023303;28;20049;-82
2022/07/05 05:18:56;;;;;;;11.60;10.60;;;15.80;70.00;;;;;;5023118;28;20050;-82
2022/07/05 05:21:22;;;;;;;11.13;10.43;;;15.80;70.10;;;;;;5047965;28;20037;-82
2022/07/05 05:23:48;;;;;;;10.38;9.80;;;15.80;70.20;;;;;;5015583;28;20056;-82
2022/07/05 05:26:14;;;;;;;11.05;10.27;;;15.90;69.90;;;;;;5015880;28;20053;-82
2022/07/05 05:28:40;;;;;;;10.55;9.63;;;16.00;69.60;;;;;;5032210;28;20041;-82
2022/07/05 05:31:06;;;;;;;10.02;9.13;;;16.20;69.10;;;;;;5047295;28;20040;-83
2022/07/05 05:33:33;;;;;;;11.20;9.75;;;16.30;68.50;;;;;;5032750;28;20025;-83
2022/07/05 05:36:00;;;;;;;10.73;9.88;;;16.30;68.60;;;;;;5047968;28;20037;-83
2022/07/05 05:38:26;;;;;;;10.00;9.00;;;16.40;68.30;;;;;;5032100;28;20037;-83
2022/07/05 05:40:52;;;;;;;10.30;9.40;;;16.70;67.70;;;;;;5031454;28;20042;-83
2022/07/05 05:43:18;;;;;;;11.15;9.90;;;16.80;66.80;;;;;;5047455;28;20037;-83
2022/07/05 05:45:44;;;;;;;11.18;10.40;;;17.00;66.00;;;;;;5047267;28;20030;-82
2022/07/05 05:48:10;;;;;;;12.00;11.15;;;17.10;65.70;;;;;;5047777;28;20388;-83
2022/07/05 05:50:38;;;;;;;12.00;11.05;;;17.20;65.50;;;;;;5048286;28;20029;-83
2022/07/05 05:53:05;;;;;;;12.55;11.82;;;17.40;64.90;;;;;;5019172;28;20045;-82
2022/07/05 05:55:31;;;;;;;13.43;12.35;;;17.50;64.60;;;;;;5028769;28;20056;-83
2022/07/05 05:58:09;;;;;;;13.23;12.32;;;17.70;63.50;;;;;;5031731;28;20044;-83
2022/07/05 06:00:36;;;;;;;12.30;11.48;;;17.70;63.10;;;;;;5045420;28;20030;-83
2022/07/05 06:03:02;;;;;;;13.10;12.30;;;17.60;63.70;;;;;;5014366;28;20472;-83
2022/07/05 06:05:28;;;;;;;13.55;12.45;;;17.70;63.20;;;;;;5010611;28;20072;-84
2022/07/05 06:07:55;;;;;;;13.38;12.57;;;17.90;62.80;;;;;;5029554;28;20054;-83
2022/07/05 06:10:23;;;;;;;14.02;12.90;;;18.00;62.60;;;;;;5014285;28;20056;-84
2022/07/05 06:12:49;;;;;;;14.18;13.30;;;18.10;62.00;;;;;;5046911;28;20025;-84
2022/07/05 06:15:15;;;;;;;14.68;13.68;;;18.10;62.00;;;;;;5030275;28;20491;-83
2022/07/05 06:17:42;;;;;;;15.15;14.23;;;18.20;61.60;;;;;;5015085;28;20465;-84
2022/07/05 06:20:09;;;;;;;16.70;15.55;;;18.40;61.10;;;;;;5020296;28;20037;-83
2022/07/05 06:22:36;;;;;;;16.20;15.18;;;18.40;60.60;;;;;;5043838;28;20033;-83
2022/07/05 06:25:02;;;;;;;17.30;16.10;;;18.40;61.00;;;;;;5028668;28;20044;-83
2022/07/05 06:27:28;;;;;;;16.60;15.55;;;18.40;61.10;;;;;;5019594;28;20036;-83
2022/07/05 06:29:54;;;;;;;17.33;16.23;;;18.50;61.50;;;;;;5014560;28;20042;-83
2022/07/05 06:32:20;;;;;;;17.98;16.70;;;18.70;60.10;;;;;;5017867;28;20030;-84
2022/07/05 06:34:47;;;;;;;16.83;15.77;;;18.80;60.10;;;;;;5045419;28;20037;-84
2022/07/05 06:37:13;;;;;;;17.15;15.90;;;18.90;59.60;;;;;;4997685;28;20041;-84
2022/07/05 06:39:39;;;;;;;19.52;18.33;;;19.00;59.40;;;;;;5046692;28;20396;-84
2022/07/05 06:42:05;;;;;;;21.58;20.08;;;19.00;59.10;;;;;;5014681;28;20029;-83
2022/07/05 06:44:31;;;;;;;20.70;19.05;;;18.90;59.50;;;;;;4998925;28;20051;-83
2022/07/05 06:46:57;;;;;;;19.52;18.10;;;19.00;59.10;;;;;;5031127;28;20403;-84
2022/07/05 06:49:23;;;;;;;20.35;19.05;;;19.20;58.60;;;;;;5023893;28;20064;-83
2022/07/05 06:51:49;;;;;;;19.08;17.65;;;19.10;59.20;;;;;;5020776;28;20487;-83
2022/07/05 06:54:15;;;;;;;20.42;19.05;;;19.20;58.60;;;;;;5046981;28;20325;-84
2022/07/05 06:56:41;;;;;;;22.17;20.88;;;19.30;58.40;;;;;;5015631;28;20392;-84
2022/07/05 06:59:07;;;;;;;20.30;19.13;;;19.20;58.30;;;;;;5047908;28;20033;-84
2022/07/05 07:01:34;;;;;;;20.65;19.45;;;19.40;58.30;;;;;;5022132;28;20504;-84
2022/07/05 07:04:00;;;;;;;16.80;15.82;;;19.40;57.90;;;;;;5022671;28;20049;-84
2022/07/05 07:06:26;;;;;;;18.90;17.70;;;19.60;57.80;;;;;;5048161;28;20502;-83
2022/07/05 07:11:36;;;;;;;17.55;16.58;;;19.70;57.40;;;;;;5034557;28;20042;-84
2022/07/05 07:14:02;;;;;;;16.00;14.90;;;19.90;57.70;;;;;;5030188;28;20476;-84
2022/07/05 07:16:29;;;;;;;15.63;14.73;;;20.10;56.80;;;;;;5021576;28;20041;-83
2022/07/05 07:18:55;;;;;;;27.80;26.10;;;20.30;56.50;;;;;;5018515;28;20128;-84
2022/07/05 07:21:21;;;;;;;30.02;27.50;;;20.50;55.80;;;;;;5018297;28;20033;-85
2022/07/05 07:23:47;;;;;;;17.33;16.20;;;20.60;55.20;;;;;;5016571;28;20404;-85
2022/07/05 07:26:13;;;;;;;17.75;16.42;;;20.70;55.20;;;;;;5020045;28;20036;-84
2022/07/05 07:28:40;;;;;;;17.67;16.45;;;20.80;54.80;;;;;;5029083;28;20034;-84
2022/07/05 07:31:07;;;;;;;17.52;16.40;;;20.80;54.60;;;;;;5033856;28;20033;-83
2022/07/05 07:33:33;;;;;;;14.68;13.88;;;20.90;54.50;;;;;;5033337;28;20021;-84
2022/07/05 07:35:59;;;;;;;16.30;15.45;;;20.50;54.70;;;;;;5032140;28;20049;-84
2022/07/05 07:38:26;;;;;;;14.75;13.88;;;20.50;54.70;;;;;;5031745;28;20030;-84
2022/07/05 07:40:52;;;;;;;16.60;15.57;;;20.50;55.10;;;;;;5045893;28;20045;-85
2022/07/05 07:43:18;;;;;;;14.57;13.77;;;20.60;54.70;;;;;;5022723;28;20044;-84
2022/07/05 07:45:44;;;;;;;14.75;13.88;;;20.70;54.40;;;;;;5018824;28;20034;-82
2022/07/05 07:48:10;;;;;;;16.95;15.93;;;20.80;54.60;;;;;;5031014;28;20018;-85
2022/07/05 07:50:36;;;;;;;18.23;16.42;;;20.90;54.00;;;;;;5045758;28;20041;-84
2022/07/05 07:53:03;;;;;;;17.42;16.25;;;21.00;53.60;;;;;;5029059;28;20041;-84
2022/07/05 07:55:29;;;;;;;17.85;16.75;;;21.10;53.40;;;;;;5029024;28;20488;-84
2022/07/05 07:57:55;;;;;;;17.00;16.00;;;21.10;53.80;;;;;;5026880;28;20479;-85
2022/07/05 08:00:21;;;;;;;17.70;16.67;;;21.20;53.30;;;;;;5015457;28;20025;-84
2022/07/05 08:02:47;;;;;;;18.20;17.10;;;21.30;53.10;;;;;;5014408;28;20029;-84
2022/07/05 08:05:13;;;;;;;17.73;16.63;;;21.50;52.40;;;;;;5018516;28;20056;-84
2022/07/05 08:07:39;;;;;;;17.02;15.93;;;21.50;52.10;;;;;;5028316;28;20415;-84
2022/07/05 08:10:06;;;;;;;18.48;17.35;;;21.50;52.40;;;;;;5028748;28;20037;-85
2022/07/05 08:12:32;;;;;;;19.05;17.95;;;21.60;51.90;;;;;;5044999;28;20036;-84
2022/07/05 08:14:59;;;;;;;20.05;18.17;;;21.70;52.20;;;;;;5012594;28;20029;-85
2022/07/05 08:17:25;;;;;;;19.67;18.48;;;21.80;51.40;;;;;;5015521;28;20045;-84
2022/07/05 08:22:35;;;;;;;20.08;18.98;;;21.90;51.60;;;;;;5040011;28;20049;-84
2022/07/05 08:25:02;;;;;;;21.02;19.83;;;22.20;50.70;;;;;;5045222;28;20049;-85
2022/07/05 08:27:28;;;;;;;21.75;20.25;;;22.20;50.70;;;;;;5044856;28;20032;-84
2022/07/05 08:29:54;;;;;;;22.23;21.02;;;22.30;50.40;;;;;;5044166;28;20377;-83
2022/07/05 08:32:20;;;;;;;22.30;21.08;;;22.40;50.60;;;;;;5029909;28;20154;-84
2022/07/05 08:34:46;;;;;;;23.45;22.15;;;22.50;49.20;;;;;;5044694;28;20040;-84
2022/07/05 08:37:12;;;;;;;21.70;20.52;;;22.50;49.60;;;;;;5007204;28;20032;-84
2022/07/05 08:39:38;;;;;;;23.73;22.52;;;22.50;50.70;;;;;;5008865;28;20061;-84
2022/07/05 08:42:05;;;;;;;22.52;21.33;;;22.70;48.90;;;;;;5044877;28;20036;-84
2022/07/05 08:44:35;;;;;;;23.38;22.17;;;22.60;49.50;;;;;;5029044;28;20484;-84
2022/07/05 08:47:02;;;;;;;22.90;21.70;;;22.60;49.30;;;;;;5016342;28;20038;-84
2022/07/05 08:49:28;;;;;;;21.67;20.40;;;22.50;49.70;;;;;;5007568;28;20038;-84
2022/07/05 08:51:55;;;;;;;20.77;19.58;;;22.40;49.90;;;;;;5010208;28;20041;-84
2022/07/05 08:54:22;;;;;;;21.50;20.13;;;22.50;50.40;;;;;;5028120;28;20464;-84
2022/07/05 08:56:48;;;;;;;20.83;19.73;;;22.60;50.40;;;;;;5028206;28;20036;-84
2022/07/05 08:59:14;;;;;;;20.58;19.58;;;22.70;48.80;;;;;;5015113;28;20038;-84
2022/07/05 09:01:40;;;;;;;21.13;20.02;;;22.70;49.20;;;;;;5041533;28;20435;-84
2022/07/05 09:04:09;;;;;;;21.65;20.45;;;22.80;49.40;;;;;;5027784;28;20041;-84
2022/07/05 09:06:37;;;;;;;21.77;20.67;;;23.00;48.40;;;;;;5043980;28;20045;-84
2022/07/05 09:09:04;;;;;;;22.40;21.20;;;23.20;47.90;;;;;;5012096;28;20045;-85
2022/07/05 09:11:41;;;;;;;21.40;20.25;;;23.40;47.30;;;;;;5041066;28;20026;-84
2022/07/05 09:14:18;;;;;;;22.10;20.80;;;23.20;47.00;;;;;;5027760;28;20029;-84
2022/07/05 09:16:44;;;;;;;23.40;22.20;;;23.10;47.60;;;;;;5018170;28;20037;-84
2022/07/05 09:19:10;;;;;;;23.77;22.40;;;23.30;47.80;;;;;;5021217;28;20357;-84
2022/07/05 09:21:36;;;;;;;26.55;25.10;;;23.50;47.00;;;;;;5028656;28;20475;-85
2022/07/05 09:24:09;;;;;;;24.80;23.35;;;23.60;46.40;;;;;;5029252;28;20037;-84
2022/07/05 09:26:39;;;;;;;23.60;22.30;;;23.70;45.90;;;;;;5026256;28;20795;-84
2022/07/05 09:29:10;;;;;;;25.85;24.55;;;23.60;46.40;;;;;;5027398;28;20050;-83
2022/07/05 09:31:44;;;;;;;24.45;22.50;;;23.80;46.20;;;;;;5020481;28;20411;-84
2022/07/05 09:34:17;;;;;;;24.65;23.27;;;24.00;45.90;;;;;;5020864;28;20403;-85
2022/07/05 09:37:01;;;;;;;25.63;23.70;;;24.00;45.60;;;;;;5027796;28;20029;-85
2022/07/05 09:39:37;;;;;;;22.27;21.08;;;23.90;46.20;;;;;;5027651;28;20033;-85
2022/07/05 09:42:12;;;;;;;23.80;22.40;;;23.90;46.40;;;;;;5029534;28;20041;-85
2022/07/05 09:44:42;;;;;;;22.45;21.23;;;24.00;47.40;;;;;;5029786;28;20037;-84
2022/07/05 09:47:10;;;;;;;24.70;23.23;;;24.20;46.40;;;;;;5030977;28;20037;-84
2022/07/05 09:49:37;;;;;;;23.38;22.00;;;24.20;46.60;;;;;;5005985;28;20053;-84
2022/07/05 09:52:04;;;;;;;23.38;22.13;;;24.30;46.30;;;;;;5036369;28;20033;-85
2022/07/05 09:54:30;;;;;;;22.42;21.33;;;24.20;46.30;;;;;;5035552;28;20048;-84
2022/07/05 09:56:56;;;;;;;22.48;21.17;;;24.20;45.50;;;;;;5032301;28;20320;-85
2022/07/05 09:59:22;;;;;;;23.25;21.90;;;24.10;46.60;;;;;;5033221;28;20029;-84
2022/07/05 10:01:48;;;;;;;22.83;21.70;;;24.10;46.50;;;;;;5031770;28;20496;-87
2022/07/05 10:04:14;;;;;;;23.67;22.27;;;24.20;47.00;;;;;;5031760;28;20048;-87
2022/07/05 10:06:43;;;;;;;22.90;21.70;;;24.30;46.30;;;;;;5030700;28;20025;-85
2022/07/05 10:09:10;;;;;;;23.20;21.90;;;24.40;45.40;;;;;;5030734;28;20049;-84
2022/07/05 10:11:40;;;;;;;22.33;21.23;;;24.50;45.20;;;;;;5016528;28;20038;-84
2022/07/05 10:14:10;;;;;;;23.33;22.13;;;24.40;44.60;;;;;;5015161;28;20041;-84
2022/07/05 10:16:37;;;;;;;22.55;21.35;;;24.50;44.10;;;;;;5021731;28;20053;-84
2022/07/05 10:19:03;;;;;;;23.77;22.58;;;24.60;44.60;;;;;;5039377;28;20034;-84
2022/07/05 10:21:29;;;;;;;24.33;22.83;;;24.90;44.30;;;;;;5032903;28;20033;-87
2022/07/05 10:23:55;;;;;;;23.13;21.63;;;24.80;44.70;;;;;;5033414;28;20033;-86
2022/07/05 10:26:22;;;;;;;22.63;21.33;;;24.80;45.00;;;;;;5033938;28;20032;-87
2022/07/05 10:28:50;;;;;;;23.90;22.60;;;24.90;44.30;;;;;;5033575;28;20030;-86
2022/07/05 10:31:16;;;;;;;26.10;24.70;;;25.10;44.40;;;;;;5032156;28;20042;-87
2022/07/05 10:33:42;;;;;;;23.65;22.33;;;25.30;43.60;;;;;;5033033;28;20025;-86
2022/07/05 10:36:12;;;;;;;23.70;22.48;;;25.10;43.60;;;;;;5016383;28;20041;-86
2022/07/05 10:38:41;;;;;;;23.37;22.10;;;25.00;43.90;;;;;;5049302;28;20026;-86
2022/07/05 10:41:09;;;;;;;25.25;23.92;;;25.00;43.80;;;;;;5030446;28;20029;-86
2022/07/05 10:43:35;;;;;;;23.17;22.00;;;25.20;43.50;;;;;;5029957;28;20035;-87
2022/07/05 10:46:06;;;;;;;24.70;23.40;;;25.20;42.90;;;;;;5031315;28;20086;-87
2022/07/05 10:48:32;;;;;;;25.05;23.83;;;25.00;42.80;;;;;;5031197;28;20023;-86
2022/07/05 10:51:25;;;;;;;24.80;23.25;;;25.10;42.90;;;;;;5014419;28;20408;-86
2022/07/05 10:53:54;;;;;;;24.55;23.15;;;25.30;42.90;;;;;;5011330;28;20038;-87
2022/07/05 10:56:20;;;;;;;25.90;24.60;;;25.40;43.00;;;;;;5047121;28;20530;-87
2022/07/05 10:58:47;;;;;;;28.17;26.67;;;25.40;41.90;;;;;;5013269;28;20052;-87
2022/07/05 11:01:19;;;;;;;30.45;28.95;;;25.60;41.60;;;;;;5029101;28;20034;-86
2022/07/05 11:03:48;;;;;;;28.08;26.50;;;25.70;41.10;;;;;;5030925;28;20040;-85
2022/07/05 11:06:25;;;;;;;29.23;27.73;;;25.70;41.40;;;;;;5030989;28;20060;-87
2022/07/05 11:08:57;;;;;;;25.67;24.33;;;25.70;41.20;;;;;;5045983;28;20045;-87
2022/07/05 11:11:30;;;;;;;25.38;24.10;;;25.40;41.20;;;;;;5047125;28;20492;-87
2022/07/05 11:13:59;;;;;;;26.25;25.02;;;25.40;43.10;;;;;;5013089;28;20048;-87
2022/07/05 11:16:29;;;;;;;27.50;26.17;;;25.70;41.10;;;;;;5028764;28;20033;-86
2022/07/05 11:19:08;;;;;;;25.23;23.60;;;25.70;41.00;;;;;;5046138;28;22098;-87
2022/07/05 11:21:34;;;;;;;26.15;24.85;;;25.30;42.40;;;;;;5046146;28;20040;-87
2022/07/05 11:24:28;;;;;;;25.90;24.60;;;25.40;42.00;;;;;;4997084;28;20450;-86
2022/07/05 11:26:57;;;;;;;27.02;25.63;;;25.60;41.50;;;;;;5029704;28;20026;-86
2022/07/05 11:29:46;;;;;;;26.17;24.88;;;25.60;40.70;;;;;;5031897;28;20495;-86
2022/07/05 11:32:18;;;;;;;26.35;24.92;;;25.60;41.20;;;;;;5016734;28;20041;-87
2022/07/05 11:34:49;;;;;;;27.25;25.73;;;25.70;41.70;;;;;;5029202;28;20764;-87
2022/07/05 11:37:15;;;;;;;;;;;25.80;41.10;;;;;;5013544;28;20335;-86
2022/07/05 11:39:41;;;;;;;25.73;24.33;;;25.60;41.10;;;;;;5045081;28;19913;-86
2022/07/05 11:42:11;;;;;;;25.73;24.42;;;25.70;41.10;;;;;;5029187;28;20511;-86
2022/07/05 11:44:40;;;;;;;26.80;25.40;;;25.70;41.40;;;;;;5029054;28;20049;-87
2022/07/05 11:47:06;;;;;;;27.77;26.38;;;25.80;41.70;;;;;;5012640;28;20048;-86
2022/07/05 11:49:32;;;;;;;28.40;26.90;;;26.10;41.00;;;;;;5045440;28;20370;-86
2022/07/05 11:52:00;;;;;;;28.35;26.95;;;26.30;40.50;;;;;;5025835;28;20037;-87
2022/07/05 11:54:30;;;;;;;28.13;26.73;;;26.20;40.30;;;;;;5016384;28;20041;-87
2022/07/05 11:56:56;;;;;;;29.70;28.30;;;26.10;40.60;;;;;;5044924;28;20034;-84
2022/07/05 11:59:23;;;;;;;28.10;26.70;;;26.30;40.30;;;;;;5030646;28;20029;-84
2022/07/05 12:01:50;;;;;;;29.48;27.88;;;26.00;40.40;;;;;;5028059;28;20403;-86
2022/07/05 12:04:22;;;;;;;31.17;29.67;;;25.90;40.20;;;;;;5044707;28;20033;-87
2022/07/05 12:06:49;;;;;;;28.33;26.83;;;25.80;40.10;;;;;;5044605;28;20040;-86
2022/07/05 12:09:22;;;;;;;27.05;25.65;;;25.90;40.60;;;;;;5030025;28;20025;-87
2022/07/05 12:14:47;;;;;;;30.20;28.55;;;26.20;40.40;;;;;;5031743;28;20388;-86
2022/07/05 12:17:18;;;;;;;27.15;25.65;;;26.50;40.50;;;;;;5026815;28;20042;-87
2022/07/05 12:19:45;;;;;;;28.40;26.90;;;26.00;40.50;;;;;;5028701;28;20034;-86
2022/07/05 12:22:11;;;;;;;30.38;28.92;;;26.20;40.40;;;;;;5011830;28;20472;-86
2022/07/05 12:24:37;;;;;;;29.73;28.15;;;26.50;40.10;;;;;;5044481;28;20421;-86
2022/07/05 12:27:04;;;;;;;28.38;26.98;;;26.40;39.90;;;;;;5012962;28;20040;-86
2022/07/05 12:29:30;;;;;;;27.35;25.95;;;26.30;40.30;;;;;;5028975;28;20025;-86
2022/07/05 12:32:04;;;;;;;28.65;27.15;;;26.20;40.50;;;;;;5027850;28;20056;-86
2022/07/05 12:34:30;;;;;;;27.92;26.52;;;26.30;40.60;;;;;;5029282;28;20049;-86
2022/07/05 12:36:57;;;;;;;29.00;27.60;;;26.50;40.00;;;;;;5028265;28;20033;-86
2022/07/05 12:39:23;;;;;;;29.65;28.15;;;26.80;39.80;;;;;;5011624;28;20041;-87
2022/07/05 12:41:50;;;;;;;27.58;26.20;;;26.90;39.30;;;;;;5012166;28;20117;-86